Headquarters, Valles Caldera, New Mexico Weather observations

Data are for 10 minute period ending at time listed.
 Day   Time   Solar   Ave.   Ave.  Ave.  Vector  Max.   Baro.   Total    
  of    of     Rad.   Air    Rel.  Wind   Wind   Wind  Press.  Precip.   
Year   Day            Temp.  Hum.  Speed  Dir.   Gust                    
2016   (MST)  Kw/m2    F      %     mph   deg.    mph    mb.     in.     
-------------------------------------------------------------------------
 243    9:20   0.58   60.3    59    5.4    75     9.0   748.7    0.00 
 243    9:30   0.61   60.5    59    5.8    75    10.2   748.7    0.00 
 243    9:40   0.80   61.2    57    7.5   101    16.7   748.7    0.00 
 243    9:50   0.71   60.9    57    7.2    95    13.1   748.8    0.00 
 243   10:00   0.69   61.7    54    5.4   109    10.2   748.7    0.00 
 243   10:10   0.67   61.3    54    6.1   119    12.5   748.7    0.00 
 243   10:20   0.85   62.5    54    6.8   114    11.9   748.7    0.00 
 243   10:30   0.70   62.8    54    6.9   141    12.5   748.7    0.00 
 243   10:40   0.83   62.3    53    6.1   140    11.3   748.6    0.00 
 243   10:50   0.91   63.1    56    6.8   112    11.3   748.6    0.00 
 243   11:00   0.77   62.7    55    8.3   102    13.1   748.5    0.00 
 243   11:10   0.90   63.1    52    5.4   100    11.3   748.5    0.00 
 243   11:20   0.54   64.2    51    3.9   158     9.0   748.4    0.00 
 243   11:30   0.59   63.4    56    6.2   195    11.3   748.3    0.00 
 243   11:40   0.20   60.8    59    5.6   190     8.4   748.2    0.00 
 243   11:50   0.29   60.2    58    2.4   164     6.0   748.2    0.00 
 243   12:00   0.21   60.7    57    5.1   114    11.3   748.1    0.00 
 243   12:10   0.28   60.2    59    2.5   176     6.0   748.0    0.00 
 243   12:20   0.90   63.9    54    3.4   233     6.6   747.9    0.00 
 243   12:30   1.02   65.5    51    5.3    15    13.1   747.8    0.00 
 243   12:40   0.39   64.3    52    7.3   105    13.7   747.7    0.00 
 243   12:50   0.58   63.9    50    5.7    98    11.9   747.6    0.00 
 243   13:00   0.63   63.4    52    5.4    32    10.8   747.6    0.00 
 243   13:10   0.20   63.2    51    2.7   350     6.6   747.5    0.00 
 243   13:20   0.31   61.4    55    4.9   323     9.6   747.4    0.00 
 243   13:30   0.25   61.3    54    4.7   350     8.4   747.3    0.00 
 243   13:40   0.22   61.1    54    4.3   313     8.4   747.2    0.00 
 243   13:50   0.20   61.5    54    3.9   321     6.6   747.1    0.00 
 243   14:00   0.15   60.9    54    4.5   337     7.8   747.1    0.00 
 243   14:10   0.16   61.1    54    2.3   315     4.8   747.0    0.00 
 243   14:20   0.20   62.0    52    1.8   256     4.8   747.0    0.00 
 243   14:30   0.27   63.0    51    4.2   256     7.2   747.0    0.00 
 243   14:40   0.21   63.5    49    2.6   212     5.4   746.9    0.00 
 243   14:50   0.11   62.4    51    2.1   169     7.8   746.8    0.00 
 243   15:00   0.15   61.3    56    5.0   236    11.3   746.8    0.00 
 243   15:10   0.36   62.5    55    6.1   223    13.1   746.8    0.00 
 243   15:20   0.68   65.5    50    7.8   222    13.7   746.8    0.00 
 243   15:30   0.61   67.0    44    5.6   259    13.1   746.8    0.00 
 243   15:40   0.57   66.8    45    6.7   237    13.7   746.7    0.00 
 243   15:50   0.55   67.2    44    6.8   245    11.3   746.7    0.00 
 243   16:00   0.52   67.3    44    5.6   233    10.8   746.7    0.00 
 243   16:10   0.49   67.2    43    4.4   273    10.2   746.7    0.00 
 243   16:20   0.33   65.0    47    5.8   296    11.3   746.7    0.00 
 243   16:30   0.42   62.8    51    7.5   321    16.7   746.6    0.00 
 243   16:40   0.18   61.5    54    6.6   322    16.7   746.6    0.00 
 243   16:50   0.10   60.9    57    5.1   149     9.0   746.8    0.00 
 243   17:00   0.07   59.0    62    6.2   119     9.6   746.8    0.00 
 243   17:10   0.06   55.7    72    7.1    88    13.1   747.0    0.00 
 243   17:20   0.04   53.4    80    3.8    47     7.2   747.0    0.01 
 243   17:30   0.02   52.6    82    3.3   333     5.4   747.1    0.02 
 243   17:40   0.02   52.1    83    4.5   340     8.4   747.0    0.07 
 243   17:50   0.01   51.2    88    3.7   243     5.4   747.0    0.01 
 243   18:00   0.01   50.9    91    4.2   231     6.0   746.9    0.00 
 243   18:10   0.01   50.9    91    4.9   237     7.2   746.9    0.02 
 243   18:20   0.01   51.1    90    6.8   220    10.2   746.7    0.03 
 243   18:30   0.01   51.3    90    3.8   218     7.2   746.8    0.01 
 243   18:40   0.01   50.5    90    5.3    91     8.4   746.9    0.00 
 243   18:50   0.00   50.1    91    3.6   339     6.6   747.2    0.00 
 243   19:00   0.00   50.0    91    4.4   315     7.8   747.1    0.00 
 243   19:10   0.00   49.7    91    2.3   244     3.6   747.1    0.00 
 243   19:20   0.00   49.4    92    2.9   281     4.2   747.2    0.00 
 243   19:30   0.00   48.8    92    2.9   240     4.8   747.2    0.00 
 243   19:40   0.00   48.5    93    1.7   305     3.6   747.3    0.00 
 243   19:50   0.00   48.4    94    3.4   280     4.8   747.4    0.00 
 243   20:00   0.00   47.8    93    3.3   276     4.8   747.4    0.00 
 243   20:10   0.00   47.2    93    3.8   262     6.6   747.5    0.00 
 243   20:20   0.00   47.5    94    2.9   288     5.4   747.6    0.00 
 243   20:30   0.00   48.4    94    3.4   267     4.8   747.7    0.00 
 243   20:40   0.00   49.2    94    2.7   292     4.8   747.8    0.00 
 243   20:50   0.00   49.8    93    2.6   254     4.8   747.9    0.00 
 243   21:00   0.00   50.4    94    3.1   274     4.8   747.9    0.00 
 243   21:10   0.00   51.3    94    2.6   304     4.8   748.0    0.00 
 243   21:20   0.00   52.1   99999    2.9   307     4.8   99999.0   99999.00 
 243   21:30   100.00  99999.0   99999  99999.0   99999   99999.0   99999.0   99999.00 
 243   21:40   100.00  99999.0   99999  99999.0   99999   99999.0   99999.0   99999.00 
 243   21:50   100.00  99999.0   99999  99999.0   99999   99999.0   99999.0   99999.00 
 243   22:00   100.00  99999.0   99999  99999.0   99999   99999.0   99999.0   99999.00 
 243   22:10   100.00  99999.0   99999  99999.0   99999   99999.0   99999.0   99999.00 
 243   22:20   0.00   51.9    89    2.4   255     5.4   748.2    0.00 
 243   22:30   0.00   51.8    89    2.0   330     3.0   748.2    0.00 
 243   22:40   0.00   51.5    89    2.2   246     3.6   748.2    0.00 
 243   22:50   0.00   51.1    91    1.8   263     3.6   748.2    0.00 
 243   23:00   0.00   51.3    90    0.2   254     1.8   748.2    0.00 
 243   23:10   0.00   51.1    90    2.2   300     3.6   748.2    0.00 
 243   23:20   0.00   50.9    89    1.7   220     4.8   748.1    0.00 
 243   23:30   0.00   50.9    89    2.2   186     7.2   748.1    0.00 
 243   23:40   0.00   50.9    88    1.4    34     4.8   748.1    0.00 
 243   23:50   0.00   50.3    89    2.7   330     4.2   748.1    0.00 
 244    0:00   0.00   50.1    90    1.9   340     4.8   748.1    0.00 
 244    0:10   0.00   49.9    91    1.6   329     3.6   748.0    0.00 
 244    0:20   0.00   49.8    91    1.2   173     3.6   747.9    0.00 
 244    0:30   0.00   49.7    92    1.4   235     3.0   747.9    0.00 
 244    0:40   0.00   49.8    92    2.9   304     4.8   747.9    0.00 
 244    0:50   0.00   49.9    92    4.0   316     6.0   747.9    0.00 
 244    1:00   0.00   50.2    90    3.2   328     5.4   747.8    0.00 
 244    1:10   0.00   50.4    89    2.9   319     4.8   747.7    0.00 
 244    1:20   0.00   50.3    91    2.0   250     5.4   747.8    0.00 
 244    1:30   0.00   50.3    91    1.6   184     4.2   747.7    0.00 
 244    1:40   0.00   50.4    90    2.7   158     7.2   747.7    0.00 
 244    1:50   0.00   50.6    88    2.8    77     6.6   747.8    0.00 
 244    2:00   0.00   50.5    89    0.5   261     1.8   747.9    0.00 
 244    2:10   0.00   50.3    89    2.5   249     4.2   747.7    0.00 
 244    2:20   0.00   50.4    90    1.7     3     3.6   747.6    0.00 
 244    2:30   0.00   50.2    91    1.0   133     2.4   747.6    0.00 
 244    2:40   0.00   50.0    92    0.4   167     2.4   747.5    0.00 
 244    2:50   0.00   50.0    91    1.4   325     3.0   747.5    0.00 
 244    3:00   0.00   50.1    90    0.4   285     3.0   747.4    0.00 
 244    3:10   0.00   50.1    90    1.4   311     3.6   747.4    0.00 
 244    3:20   0.00   50.3    88    1.1   253     3.6   747.2    0.00 
 244    3:30   0.00   49.9    91    0.6   304     3.6   747.2    0.00 
 244    3:40   0.00   49.3    90    2.9   317     5.4   747.2    0.00 
 244    3:50   0.00   49.2    89    1.4   301     3.6   747.2    0.00 
 244    4:00   0.00   48.1    90    3.7   299     4.8   747.1    0.00 
 244    4:10   0.00   47.0    92    2.6   269     3.6   747.0    0.00 
 244    4:20   0.00   46.1    92    3.1   296     4.8   747.0    0.00 
 244    4:30   0.00   45.7    93    2.3   283     4.2   747.0    0.00 
 244    4:40   0.00   45.6    93    2.5   304     4.2   747.0    0.00 
 244    4:50   0.00   45.9    93    2.9   293     3.6   747.0    0.00 
 244    5:00   0.00   46.2    94    3.7   291     6.0   747.0    0.00 
 244    5:10   0.00   46.8    93    1.8   327     3.6   747.0    0.00 
 244    5:20   0.00   46.2    92    0.7   297     2.4   747.0    0.00 
 244    5:30   0.00   45.8    92    2.5   278     4.2   747.1    0.00 
 244    5:40   0.00   45.0    92    3.1   281     4.8   747.1    0.00 
 244    5:50   0.01   44.5    93    2.9   297     4.2   747.2    0.00 
 244    6:00   0.01   44.4    94    3.6   297     4.2   747.3    0.00 
 244    6:10   0.01   44.0    93    3.3   277     4.8   747.3    0.00 
 244    6:20   0.02   44.4    94    1.8   269     3.6   747.4    0.00 
 244    6:30   0.04   45.6    95    2.0   276     3.0   747.5    0.00 
 244    6:40   0.05   46.7    94    1.4   296     3.0   747.5    0.00 
 244    6:50   0.08   48.1    93    0.8   316     1.8   747.5    0.00 
 244    7:00   0.12   50.0    92    0.7   283     3.0   747.5    0.00 
 244    7:10   0.13   52.2    83    1.5     9     3.6   747.6    0.00 
 244    7:20   0.19   55.0    76    0.0    42     1.2   747.6    0.00 
 244    7:30   0.24   57.8    69    1.1   267     3.0   747.8    0.00 
 244    7:40   0.32   58.5    69    2.2    16     4.8   747.8    0.00 
 244    7:50   0.33   58.0    70    2.3    58     4.2   747.9    0.00 
 244    8:00   0.36   58.8    69    2.7    66     5.4   747.9    0.00 
 244    8:10   0.39   60.0    65    1.6    55     3.6   748.0    0.00 
 244    8:20   0.42   59.6    65    2.5   329     4.8   748.0    0.00 
 244    8:30   0.43   59.4    67    3.1   116     5.4   748.1    0.00 
 244    8:40   0.47   59.7    66    2.0    97     4.8   748.1    0.00 
 244    8:50   0.50   61.9    64    2.8    97     6.0   748.0    0.00 
 244    9:00   0.52   60.8    64    4.6    83     8.4   748.0    0.00 
 244    9:10   0.53   60.8    65    4.9    87     8.4   748.1    0.00 

Return to Headquarters, Valles Caldera graphs page.


Western Regional Climate Center,wrcc@dri.edu